createdAt,value
2022-12-25T00:01:32.354Z,100.47
2022-12-25T00:04:01.492Z,100.85
2022-12-25T00:06:29.128Z,99.80
2022-12-25T00:08:55.975Z,99.32
2022-12-25T00:11:23.232Z,97.57
2022-12-25T00:13:50.411Z,98.57
2022-12-25T00:16:24.647Z,95.88
2022-12-25T00:18:55.232Z,98.00
2022-12-25T00:21:24.766Z,98.40
2022-12-25T00:23:57.080Z,99.38
2022-12-25T00:26:25.141Z,95.50
2022-12-25T00:28:54.022Z,96.93
2022-12-25T00:31:21.488Z,95.80
2022-12-25T00:33:54.741Z,97.82
2022-12-25T00:36:23.214Z,95.35
2022-12-25T00:38:51.964Z,97.47
2022-12-25T00:41:43.012Z,96.68
2022-12-25T00:44:14.606Z,97.40
2022-12-25T00:46:42.540Z,93.45
2022-12-25T00:49:10.871Z,90.63
2022-12-25T00:51:38.136Z,94.35
2022-12-25T00:54:04.873Z,91.68
2022-12-25T00:56:31.545Z,90.22
2022-12-25T00:58:58.565Z,94.03
2022-12-25T01:01:25.528Z,93.38
2022-12-25T01:03:52.299Z,88.72
2022-12-25T01:06:19.038Z,86.70
2022-12-25T01:09:04.377Z,90.30
2022-12-25T01:11:31.367Z,83.80
2022-12-25T01:13:58.151Z,88.38
2022-12-25T01:16:25.119Z,93.43
2022-12-25T01:18:52.142Z,85.95
2022-12-25T01:21:21.318Z,94.15
2022-12-25T01:23:49.456Z,95.88
2022-12-25T01:26:17.423Z,88.57
2022-12-25T01:28:44.422Z,92.95
2022-12-25T01:31:13.694Z,85.90
2022-12-25T01:33:41.617Z,92.43
2022-12-25T01:36:17.488Z,91.03
2022-12-25T01:38:45.604Z,89.63
2022-12-25T01:41:19.088Z,92.63
2022-12-25T01:44:03.336Z,87.68
2022-12-25T01:46:32.536Z,84.22
2022-12-25T01:49:03.590Z,83.70
2022-12-25T01:51:32.157Z,83.83
2022-12-25T01:54:03.906Z,87.15
2022-12-25T01:56:32.160Z,86.13
2022-12-25T01:58:59.686Z,87.28
2022-12-25T02:01:27.243Z,88.00
2022-12-25T02:03:59.477Z,88.57
2022-12-25T02:06:30.777Z,84.88
2022-12-25T02:08:59.398Z,86.63
2022-12-25T02:11:44.697Z,85.20
2022-12-25T02:14:12.832Z,81.65
2022-12-25T02:16:58.124Z,83.35
2022-12-25T02:19:59.468Z,81.25
2022-12-25T02:22:56.682Z,83.78
2022-12-25T02:25:37.761Z,84.90
2022-12-25T02:28:33.881Z,83.53
2022-12-25T02:31:27.740Z,84.88
2022-12-25T02:34:08.918Z,84.70
2022-12-25T02:36:44.883Z,83.03
2022-12-25T02:39:56.705Z,79.45
2022-12-25T02:43:26.124Z,81.55
2022-12-25T02:46:28.376Z,87.25
2022-12-25T02:49:28.086Z,86.88
2022-12-25T02:52:18.522Z,85.28
2022-12-25T02:55:09.424Z,88.40
2022-12-25T02:58:00.578Z,90.15
2022-12-25T03:00:48.806Z,89.43
2022-12-25T03:03:37.580Z,90.00
2022-12-25T03:06:29.017Z,93.88
2022-12-25T03:09:18.923Z,89.50
2022-12-25T03:11:54.520Z,93.65
2022-12-25T03:14:39.993Z,93.68
2022-12-25T03:17:09.457Z,91.32
2022-12-25T03:19:54.692Z,95.10
2022-12-25T03:22:48.800Z,94.22
2022-12-25T03:25:35.816Z,97.65
2022-12-25T03:28:03.485Z,95.90
2022-12-25T03:31:06.086Z,100.57
2022-12-25T03:34:11.613Z,97.18
2022-12-25T03:37:17.047Z,94.57
2022-12-25T03:39:55.566Z,98.93
2022-12-25T03:42:42.167Z,96.68
2022-12-25T03:45:56.336Z,94.22
2022-12-25T03:48:43.146Z,95.68
2022-12-25T03:51:32.269Z,97.68
2022-12-25T03:54:23.411Z,93.55
2022-12-25T03:57:10.644Z,93.00
2022-12-25T03:59:56.134Z,95.63
2022-12-25T04:02:42.153Z,93.80
2022-12-25T04:05:27.914Z,91.07
2022-12-25T04:08:13.190Z,88.97
2022-12-25T04:10:58.573Z,91.57
2022-12-25T04:14:01.310Z,84.97
2022-12-25T04:16:47.623Z,83.95
2022-12-25T04:19:32.849Z,80.80
2022-12-25T04:22:18.361Z,78.53
2022-12-25T04:25:04.005Z,79.88
2022-12-25T04:27:50.200Z,73.20
2022-12-25T04:30:38.165Z,72.40
2022-12-25T04:33:23.595Z,71.57
2022-12-25T04:36:08.944Z,70.18
2022-12-25T04:38:37.014Z,72.25
2022-12-25T04:41:07.284Z,72.43
2022-12-25T04:43:34.472Z,73.68
2022-12-25T04:46:02.923Z,71.45
2022-12-25T04:48:33.164Z,72.53
2022-12-25T04:51:21.215Z,75.05
2022-12-25T04:53:49.711Z,72.47
2022-12-25T04:56:17.576Z,74.75
2022-12-25T04:58:45.232Z,72.88
2022-12-25T05:01:12.673Z,71.55
2022-12-25T05:03:40.010Z,75.05
2022-12-25T05:06:07.387Z,78.57
2022-12-25T05:08:36.602Z,81.70
2022-12-25T05:11:08.804Z,79.95
2022-12-25T05:13:38.357Z,83.07
2022-12-25T05:16:13.239Z,84.97
2022-12-25T05:18:40.272Z,84.00
2022-12-25T05:21:08.088Z,87.50
2022-12-25T05:23:36.569Z,87.00
2022-12-25T05:26:07.602Z,84.90
2022-12-25T05:28:37.713Z,90.25
2022-12-25T05:31:04.430Z,97.38
2022-12-25T05:33:31.436Z,94.80
2022-12-25T05:35:58.765Z,99.18
2022-12-25T05:38:25.756Z,96.57
2022-12-25T05:40:52.626Z,96.65
2022-12-25T05:43:19.727Z,94.32
2022-12-25T05:45:46.539Z,95.95
2022-12-25T05:48:13.636Z,95.05
2022-12-25T05:50:40.273Z,90.30
2022-12-25T05:53:09.080Z,94.53
2022-12-25T05:55:37.356Z,91.90
2022-12-25T05:58:04.942Z,89.45
2022-12-25T06:00:32.305Z,90.97
2022-12-25T06:03:00.112Z,91.57
2022-12-25T06:05:27.016Z,89.35
2022-12-25T06:07:53.684Z,90.65
2022-12-25T06:10:20.476Z,92.13
2022-12-25T06:12:48.922Z,94.28
2022-12-25T06:15:15.712Z,93.13
2022-12-25T06:17:42.451Z,86.68
2022-12-25T06:20:09.580Z,88.18
2022-12-25T06:22:36.665Z,89.82
2022-12-25T06:25:03.584Z,89.53
2022-12-25T06:27:30.405Z,93.25
2022-12-25T06:29:57.149Z,87.93
2022-12-25T06:32:23.995Z,89.65
2022-12-25T06:34:50.973Z,85.93
2022-12-25T06:37:18.014Z,85.20
2022-12-25T06:39:44.725Z,86.35
2022-12-25T06:42:11.600Z,84.57
2022-12-25T06:44:39.025Z,85.30
2022-12-25T06:47:05.867Z,88.75
2022-12-25T06:49:33.888Z,85.97
2022-12-25T06:52:00.681Z,88.60
2022-12-25T06:54:27.570Z,84.78
2022-12-25T06:56:54.257Z,85.60
2022-12-25T06:59:21.107Z,82.43
2022-12-25T07:01:49.595Z,78.25
2022-12-25T07:04:22.400Z,78.55
2022-12-25T07:06:49.046Z,79.68
2022-12-25T07:09:15.829Z,77.70
2022-12-25T07:11:42.603Z,79.15
2022-12-25T07:14:23.220Z,80.78
2022-12-25T07:16:50.899Z,78.60
2022-12-25T07:19:19.507Z,82.57
2022-12-25T07:21:46.477Z,79.70
2022-12-25T07:24:20.896Z,78.65
2022-12-25T07:26:49.557Z,77.03
2022-12-25T07:29:19.822Z,77.13
2022-12-25T07:31:47.190Z,78.55
2022-12-25T07:34:14.043Z,77.32
2022-12-25T07:36:40.738Z,79.32
2022-12-25T07:39:07.435Z,79.13
2022-12-25T07:41:34.201Z,77.78
2022-12-25T07:44:04.490Z,80.95
2022-12-25T07:46:31.798Z,77.53
2022-12-25T07:48:58.718Z,80.47
2022-12-25T07:51:25.619Z,76.63
2022-12-25T07:53:52.902Z,77.53
2022-12-25T07:56:20.643Z,79.07
2022-12-25T07:58:54.632Z,77.60
2022-12-25T08:01:24.430Z,76.00
2022-12-25T08:03:56.374Z,77.40
2022-12-25T08:08:51.639Z,79.05
2022-12-25T08:11:18.584Z,79.95
2022-12-25T08:13:45.349Z,75.72
2022-12-25T08:16:12.312Z,77.07
2022-12-25T08:18:41.280Z,77.18
2022-12-25T08:21:11.157Z,77.75
2022-12-25T08:23:40.431Z,80.05
2022-12-25T08:26:08.768Z,71.93
2022-12-25T08:28:37.614Z,75.45
2022-12-25T08:31:24.914Z,76.72
2022-12-25T08:33:55.642Z,75.75
2022-12-25T08:36:23.183Z,72.68
2022-12-25T08:38:53.450Z,75.82
2022-12-25T08:41:23.278Z,68.43
2022-12-25T08:43:50.401Z,68.60
2022-12-25T08:46:17.332Z,69.32
2022-12-25T08:48:51.122Z,68.70
2022-12-25T08:51:27.365Z,67.43
2022-12-25T08:53:59.760Z,66.22
2022-12-25T08:56:27.959Z,67.30
2022-12-25T08:58:54.755Z,65.68
2022-12-25T09:01:21.631Z,68.38
2022-12-25T09:03:48.459Z,66.05
2022-12-25T09:06:18.984Z,72.97
2022-12-25T09:08:49.175Z,75.55
2022-12-25T09:11:17.786Z,73.95
2022-12-25T09:13:44.543Z,68.97
2022-12-25T09:16:16.368Z,77.97
2022-12-25T09:18:43.141Z,79.90
2022-12-25T09:21:14.813Z,78.53
2022-12-25T09:23:42.351Z,67.78
2022-12-25T09:26:15.693Z,67.28
2022-12-25T09:28:50.330Z,83.50
2022-12-25T09:31:22.680Z,82.32
2022-12-25T09:33:50.304Z,79.95
2022-12-25T09:36:18.012Z,77.72
2022-12-25T09:38:44.824Z,77.18
2022-12-25T09:41:33.908Z,78.38
2022-12-25T09:44:03.806Z,71.55
2022-12-25T09:46:42.149Z,75.80
2022-12-25T09:49:22.018Z,74.45
2022-12-25T09:52:03.863Z,74.18
2022-12-25T09:54:45.708Z,71.97
2022-12-25T09:57:13.943Z,72.25
2022-12-25T09:59:43.911Z,70.53
2022-12-25T10:02:15.165Z,72.35
2022-12-25T10:04:48.236Z,70.25
2022-12-25T10:07:30.624Z,69.50
2022-12-25T10:10:09.623Z,71.22
2022-12-25T10:12:41.991Z,65.55
2022-12-25T10:15:45.639Z,63.58
2022-12-25T10:18:42.062Z,65.80
2022-12-25T10:21:14.500Z,63.58
2022-12-25T10:23:48.477Z,62.17
2022-12-25T10:26:23.615Z,64.47
2022-12-25T10:29:10.023Z,65.68
2022-12-25T10:31:39.906Z,62.90
2022-12-25T10:34:09.476Z,66.15
2022-12-25T10:36:36.233Z,63.45
2022-12-25T10:39:03.411Z,61.10
2022-12-25T10:42:04.488Z,62.30
2022-12-25T10:44:33.311Z,59.80
2022-12-25T10:47:06.139Z,63.10
2022-12-25T10:49:37.536Z,65.82
2022-12-25T10:52:23.209Z,61.42
2022-12-25T10:54:59.185Z,64.28
2022-12-25T10:57:29.853Z,64.07
2022-12-25T10:59:57.197Z,65.32
2022-12-25T11:02:39.447Z,64.18
2022-12-25T11:07:50.978Z,62.83
2022-12-25T11:10:28.572Z,64.57
2022-12-25T11:12:56.228Z,64.88
2022-12-25T11:15:49.882Z,63.35
2022-12-25T11:18:28.969Z,63.97
2022-12-25T11:21:14.426Z,63.58
2022-12-25T11:23:46.805Z,61.10
2022-12-25T11:26:17.205Z,63.05
2022-12-25T11:28:48.629Z,60.63
2022-12-25T11:31:21.204Z,60.40
2022-12-25T11:34:14.773Z,57.63
2022-12-25T11:36:50.218Z,56.58
2022-12-25T11:39:37.633Z,60.88
2022-12-25T11:42:37.542Z,60.85
2022-12-25T11:45:20.149Z,62.53
2022-12-25T11:47:52.866Z,61.38
2022-12-25T11:50:50.602Z,60.35
2022-12-25T11:53:20.275Z,59.72
2022-12-25T11:55:54.988Z,58.60
2022-12-25T11:58:50.680Z,57.90
2022-12-25T12:01:29.473Z,58.80
2022-12-25T12:04:00.271Z,57.70
2022-12-25T12:06:35.740Z,60.75
2022-12-25T12:09:25.325Z,61.38
2022-12-25T12:12:35.786Z,59.13
2022-12-25T12:15:12.807Z,56.78
2022-12-25T12:17:39.804Z,56.13
2022-12-25T12:20:33.460Z,57.60
2022-12-25T12:23:05.237Z,60.50
2022-12-25T12:25:32.081Z,59.45
2022-12-25T12:28:21.595Z,53.10
2022-12-25T12:31:11.905Z,59.38
2022-12-25T12:33:58.041Z,62.53
2022-12-25T12:36:36.184Z,61.42
2022-12-25T12:39:06.082Z,60.90
2022-12-25T12:41:59.690Z,58.85
2022-12-25T12:44:31.301Z,61.33
2022-12-25T12:46:58.430Z,56.05
2022-12-25T12:49:32.396Z,55.05
2022-12-25T12:52:44.166Z,58.72
2022-12-25T12:55:15.183Z,55.88
2022-12-25T12:57:43.424Z,54.35
2022-12-25T13:00:21.318Z,56.17
2022-12-25T13:02:57.426Z,58.17
2022-12-25T13:05:37.632Z,53.03
2022-12-25T13:08:45.373Z,58.13
2022-12-25T13:11:20.902Z,55.85
2022-12-25T13:13:49.728Z,57.63
2022-12-25T13:16:25.058Z,52.70
2022-12-25T13:18:53.705Z,54.70
2022-12-25T13:21:24.667Z,50.03
2022-12-25T13:23:57.694Z,47.83
2022-12-25T13:26:26.907Z,51.92
2022-12-25T13:28:59.533Z,53.05
2022-12-25T13:31:30.736Z,55.15
2022-12-25T13:34:02.997Z,53.83
2022-12-25T13:39:00.375Z,54.13
2022-12-25T13:42:04.830Z,55.15
2022-12-25T13:44:46.291Z,45.33
2022-12-25T13:47:35.847Z,49.38
2022-12-25T13:50:20.186Z,49.95
2022-12-25T13:52:50.900Z,53.72
2022-12-25T13:55:23.609Z,50.22
2022-12-25T13:57:53.674Z,49.13
2022-12-25T14:00:37.861Z,53.03
2022-12-25T14:03:17.677Z,46.22
2022-12-25T14:05:44.576Z,46.88
2022-12-25T14:08:24.116Z,51.53
2022-12-25T14:10:52.681Z,54.58
2022-12-25T14:13:23.602Z,54.90
2022-12-25T14:16:00.861Z,55.08
2022-12-25T14:18:29.868Z,52.95
2022-12-25T14:21:11.033Z,46.97
2022-12-25T14:23:47.258Z,54.77
2022-12-25T14:26:22.040Z,55.33
2022-12-25T14:28:56.042Z,50.50
2022-12-25T14:31:25.097Z,55.08
2022-12-25T14:33:57.880Z,53.75
2022-12-25T14:36:25.088Z,55.75
2022-12-25T14:39:06.999Z,52.30
2022-12-25T14:41:41.788Z,55.65
2022-12-25T14:44:44.133Z,53.50
2022-12-25T14:49:38.146Z,48.88
2022-12-25T14:52:33.640Z,56.65
2022-12-25T14:55:03.302Z,58.90
2022-12-25T14:57:39.097Z,56.03
2022-12-25T15:00:21.420Z,56.28
2022-12-25T15:02:50.216Z,55.47
2022-12-25T15:05:32.175Z,48.13
2022-12-25T15:08:13.919Z,51.95
2022-12-25T15:13:28.727Z,54.75
2022-12-25T15:16:08.379Z,50.13
2022-12-25T15:18:41.361Z,53.20
2022-12-25T15:21:19.140Z,51.38
2022-12-25T15:23:46.418Z,53.65
2022-12-25T15:26:14.249Z,54.10
2022-12-25T15:28:41.555Z,54.40
2022-12-25T15:31:35.932Z,53.60
2022-12-25T15:34:15.688Z,51.22
2022-12-25T15:36:42.363Z,51.83
2022-12-25T15:39:09.030Z,51.47
2022-12-25T15:41:56.173Z,50.90
2022-12-25T15:44:26.056Z,53.03
2022-12-25T15:46:57.192Z,51.55
2022-12-25T15:49:27.080Z,55.28
2022-12-25T15:51:53.830Z,70.75
2022-12-25T15:54:23.124Z,66.45
2022-12-25T15:56:58.877Z,64.25
2022-12-25T15:59:35.473Z,60.70
2022-12-25T16:02:02.379Z,61.35
2022-12-25T16:04:32.727Z,57.42
2022-12-25T16:06:59.922Z,56.67
2022-12-25T16:09:29.622Z,59.03
2022-12-25T16:11:56.519Z,52.58
2022-12-25T16:14:23.380Z,55.55
2022-12-25T16:16:50.116Z,53.20
2022-12-25T16:19:20.068Z,55.20
2022-12-25T16:21:48.169Z,54.55
2022-12-25T16:24:17.003Z,50.63
2022-12-25T16:26:44.167Z,56.53
2022-12-25T16:29:11.376Z,54.17
2022-12-25T16:31:39.985Z,53.17
2022-12-25T16:34:08.932Z,53.30
2022-12-25T16:36:36.330Z,55.83
2022-12-25T16:39:06.210Z,52.50
2022-12-25T16:41:33.267Z,55.03
2022-12-25T16:44:04.875Z,54.55
2022-12-25T16:46:32.400Z,55.60
2022-12-25T16:48:59.274Z,54.78
2022-12-25T16:51:26.097Z,55.08
2022-12-25T16:53:54.815Z,54.40
2022-12-25T16:56:26.020Z,52.28
2022-12-25T16:58:52.802Z,54.22
2022-12-25T17:01:23.066Z,54.58
2022-12-25T17:03:51.171Z,53.22
2022-12-25T17:06:22.989Z,54.78
2022-12-25T17:11:20.958Z,52.10
2022-12-25T17:13:48.273Z,54.05
2022-12-25T17:16:22.954Z,52.55
2022-12-25T17:18:57.315Z,56.63
2022-12-25T17:21:24.940Z,51.85
2022-12-25T17:23:55.337Z,53.03
2022-12-25T17:26:24.935Z,53.03
2022-12-25T17:28:52.044Z,50.60
2022-12-25T17:31:18.958Z,53.63
2022-12-25T17:33:46.267Z,48.00
2022-12-25T17:36:16.963Z,54.25
2022-12-25T17:38:44.910Z,53.30
2022-12-25T17:41:13.615Z,51.88
2022-12-25T17:43:43.553Z,54.42
2022-12-25T17:46:16.918Z,57.75
2022-12-25T17:48:44.834Z,52.67
2022-12-25T17:51:16.469Z,52.13
2022-12-25T17:53:46.077Z,49.63
2022-12-25T17:56:14.127Z,54.80
2022-12-25T17:58:41.887Z,54.30
2022-12-25T18:01:12.487Z,52.40
2022-12-25T18:03:39.572Z,53.17
2022-12-25T18:06:08.747Z,53.70
2022-12-25T18:08:39.572Z,51.33
2022-12-25T18:11:15.430Z,52.00
2022-12-25T18:13:44.876Z,54.17
2022-12-25T18:16:13.151Z,53.25
2022-12-25T18:18:45.206Z,51.33
2022-12-25T18:21:16.492Z,51.10
2022-12-25T18:23:43.478Z,51.33
2022-12-25T18:26:13.613Z,54.80
2022-12-25T18:28:42.710Z,53.88
2022-12-25T18:31:19.813Z,52.25
2022-12-25T18:33:47.535Z,54.25
2022-12-25T18:36:17.529Z,53.67
2022-12-25T18:38:44.665Z,45.72
2022-12-25T18:41:14.700Z,57.08
2022-12-25T18:43:55.540Z,55.72
2022-12-25T18:46:27.483Z,58.05
2022-12-25T18:48:56.815Z,55.90
2022-12-25T18:51:24.332Z,54.70
2022-12-25T18:53:51.792Z,55.65
2022-12-25T18:56:20.119Z,55.75
2022-12-25T18:58:48.189Z,56.65
2022-12-25T19:01:16.529Z,54.53
2022-12-25T19:03:43.855Z,55.25
2022-12-25T19:06:17.788Z,54.40
2022-12-25T19:08:44.676Z,54.15
2022-12-25T19:11:14.484Z,55.28
2022-12-25T19:13:41.458Z,51.72
2022-12-25T19:16:08.540Z,55.38
2022-12-25T19:18:35.449Z,54.13
2022-12-25T19:21:04.434Z,54.47
2022-12-25T19:23:31.587Z,54.13
2022-12-25T19:26:07.219Z,52.45
2022-12-25T19:28:34.340Z,55.80
2022-12-25T19:31:01.663Z,50.83
2022-12-25T19:33:30.880Z,51.40
2022-12-25T19:36:01.806Z,46.63
2022-12-25T19:38:28.618Z,52.58
2022-12-25T19:41:03.559Z,53.53
2022-12-25T19:43:43.781Z,49.50
2022-12-25T19:46:20.283Z,50.53
2022-12-25T19:48:50.625Z,49.05
2022-12-25T19:51:29.161Z,47.22
2022-12-25T19:53:56.603Z,47.63
2022-12-25T19:56:24.523Z,44.58
2022-12-25T19:58:51.465Z,44.45
2022-12-25T20:01:21.662Z,38.65
2022-12-25T20:03:48.966Z,35.67
2022-12-25T20:06:20.108Z,37.08
2022-12-25T20:08:48.450Z,37.38
2022-12-25T20:11:20.237Z,35.10
2022-12-25T20:13:49.576Z,35.03
2022-12-25T20:16:17.171Z,35.47
2022-12-25T20:18:44.968Z,36.35
2022-12-25T20:21:27.623Z,35.33
2022-12-25T20:23:57.368Z,34.70
2022-12-25T20:26:28.495Z,34.80
2022-12-25T20:28:55.866Z,35.08
2022-12-25T20:31:31.108Z,34.90
2022-12-25T20:34:07.812Z,31.40
2022-12-25T20:36:38.135Z,33.65
2022-12-25T20:39:10.023Z,30.92
2022-12-25T20:41:37.630Z,32.08
2022-12-25T20:44:06.436Z,31.85
2022-12-25T20:46:33.146Z,33.38
2022-12-25T20:49:01.861Z,33.35
2022-12-25T20:51:28.665Z,34.22
2022-12-25T20:53:55.767Z,36.15
2022-12-25T20:56:26.140Z,34.90
2022-12-25T20:59:02.452Z,36.13
2022-12-25T21:01:31.369Z,35.22
2022-12-25T21:04:03.641Z,35.05
2022-12-25T21:06:33.108Z,37.80
2022-12-25T21:09:00.344Z,36.15
2022-12-25T21:11:28.032Z,33.97
2022-12-25T21:13:54.972Z,36.85
2022-12-25T21:16:24.880Z,35.92
2022-12-25T21:18:54.551Z,33.50
2022-12-25T21:21:22.908Z,35.63
2022-12-25T21:23:57.203Z,36.78
2022-12-25T21:26:29.783Z,47.05
2022-12-25T21:29:00.724Z,53.90
2022-12-25T21:31:29.228Z,50.67
2022-12-25T21:33:57.834Z,54.50
2022-12-25T21:36:32.569Z,57.50
2022-12-25T21:39:07.281Z,62.63
2022-12-25T21:41:36.853Z,62.08
2022-12-25T21:44:03.884Z,61.53
2022-12-25T21:46:31.990Z,62.67
2022-12-25T21:49:04.332Z,66.13
2022-12-25T21:51:52.246Z,63.58
2022-12-25T21:54:21.178Z,64.30
2022-12-25T21:56:50.093Z,67.28
2022-12-25T21:59:20.588Z,68.18
2022-12-25T22:01:49.139Z,67.75
2022-12-25T22:04:18.859Z,67.05
2022-12-25T22:07:04.671Z,64.38
2022-12-25T22:09:31.829Z,68.78
2022-12-25T22:12:18.045Z,67.10
2022-12-25T22:14:59.038Z,68.28
2022-12-25T22:17:51.362Z,65.50
2022-12-25T22:22:47.477Z,69.05
2022-12-25T22:25:16.340Z,67.38
2022-12-25T22:27:45.675Z,67.78
2022-12-25T22:30:18.012Z,66.22
2022-12-25T22:32:51.028Z,67.70
2022-12-25T22:35:19.154Z,62.53
2022-12-25T22:37:46.282Z,67.55
2022-12-25T22:40:16.235Z,63.92
2022-12-25T22:42:43.482Z,66.97
2022-12-25T22:45:12.630Z,65.72
2022-12-25T22:47:40.519Z,64.18
2022-12-25T22:50:09.290Z,64.20
2022-12-25T22:52:36.934Z,64.28
2022-12-25T22:55:09.350Z,62.03
2022-12-25T22:57:38.870Z,64.78
2022-12-25T23:00:08.995Z,62.97
2022-12-25T23:02:37.163Z,63.15
2022-12-25T23:05:04.165Z,64.53
2022-12-25T23:07:34.643Z,64.70
2022-12-25T23:10:01.372Z,66.07
2022-12-25T23:12:49.733Z,65.00
2022-12-25T23:15:17.461Z,63.05
2022-12-25T23:18:03.728Z,64.32
2022-12-25T23:20:52.088Z,64.57
2022-12-25T23:23:38.536Z,64.13
2022-12-25T23:26:08.429Z,62.95
2022-12-25T23:28:58.069Z,65.78
2022-12-25T23:31:43.127Z,63.63
2022-12-25T23:34:23.487Z,64.45
2022-12-25T23:36:54.810Z,64.43
2022-12-25T23:39:25.110Z,61.30
2022-12-25T23:42:13.288Z,62.78
2022-12-25T23:44:48.540Z,62.72
2022-12-25T23:47:17.027Z,63.58
2022-12-25T23:49:44.576Z,61.20
2022-12-25T23:55:01.241Z,62.92
2022-12-25T23:57:29.266Z,65.22
